Statengracht — PHAQ — position and weather

sailwx.info

Track history (hours):
 
Tides and Currents Weather Stations Pressure Air Temp Water Temp Dewpoint Dewpoint Depression Visibility Wind Speed Wind Dir Waves Ship Positions

Statengracht

Last reported at 2019-Jan-21 18:00 UTC. Time now 2019-Jan-22 05:57 UTC.
Position N 45°18' W 060°24'.

Length 173 m; beam 25 m.

Type: Cargo ship. MMSI: 244584000.

Wind from 230 at 42 knots

Barometer 994.1 mb
Air temperature 2.5 ° C
Visibility: greater than 5.4 NM
Dewpoint -0.7 ° C
Water temperature 10.0 ° C

Date/timePositionNaut miles runAvg speedWind from/ knotsBaromVisibWave heightAir tempDewpointWater temp
2019-Jan-21 18:00N 45°18' W 060°24'8914.8 230 / 42994.1 5.4 2.5-0.710.0
2019-Jan-21 12:00N 44°12' W 061°48'8414.0 220 / 35990.0 5.4 8.0 7.011.0
2019-Jan-21 06:00N 43°06' W 063°00'8814.6 230 / 55991.0 5.4 10.1 6.611.0
2019-Jan-21 00:00N 42°00' W 064°18'9015.0 180 / 47997.5 5.4 16.512.713.0
2019-Jan-20 18:00N 41°06' W 065°54'8413.9 220 / 441003.0 5.4 13.210.712.0
2019-Jan-20 12:00N 40°12' W 067°18'8814.7 140 / 191008.2 2.2 10.0 9.115.0
2019-Jan-20 06:00N 39°24' W 068°54'8914.8 230 / 401013.010.8 13.810.315.0
2019-Jan-20 00:00N 38°24' W 070°18'8514.2 100 / 121018.610.8 11.0 5.415.0
2019-Jan-19 18:00N 37°30' W 071°42'10918.1 150 / 91021.110.8 11.5 6.521.0
2019-Jan-19 12:00N 36°18' W 073°24'10417.3 350 / 121019.910.8 13.5 6.726.0
2019-Jan-19 06:00N 35°00' W 074°48'11218.7 170 / 71020.010.8 14.2 9.924.0
2019-Jan-19 00:00N 33°36' W 076°18'11819.6 280 / 141019.010.8 16.011.226.0
2019-Jan-18 18:00N 32°06' W 077°48'8614.3 260 / 231020.010.8 18.611.127.5
2019-Jan-18 12:00N 31°06' W 079°00'10116.8 270 / 141019.810.8 19.011.426.0
2019-Jan-18 06:00N 29°30' W 079°36'9616.0 210 / 191021.010.8 21.814.127.0
2019-Jan-18 00:00N 27°54' W 079°36'6116.7 190 / 71021.010.8 23.014.327.0
2019-Jan-17 20:21N 26°55' W 079°51'616.1
2019-Jan-17 19:57N 26°50' W 079°56'7 8.2
2019-Jan-17 19:05N 26°46' W 080°03'0 0.0
2019-Jan-17 06:03N 26°46' W 080°03'0 0.0
2019-Jan-16 21:09N 26°46' W 080°03'0 0.0
2019-Jan-16 19:11N 26°46' W 080°03'0 0.8
2019-Jan-16 18:59N 26°46' W 080°03'2 4.5
2019-Jan-16 18:29N 26°46' W 080°00'3 6.9
2019-Jan-16 18:00N 26°49' W 079°58'714.0
2019-Jan-16 17:30N 26°56' W 079°56'713.3
2019-Jan-16 16:59N 27°03' W 079°55'6412.7
2019-Jan-16 12:00N 28°06' W 079°48'7813.0 330 / 171020.9 5.4 18.013.927.0
2019-Jan-16 06:00N 29°24' W 079°54'7212.0 130 / 11021.010.8 17.613.523.0
2019-Jan-16 00:00N 30°36' W 079°48'7011.7 350 / 161021.010.8 15.0 9.327.0
2019-Jan-15 18:00N 31°36' W 079°06'7813.0 220 / 31021.010.8 12.5 5.423.0
2019-Jan-15 12:00N 32°30' W 078°00'9716.2 350 / 151021.210.8 10.0 5.821.0
2019-Jan-15 06:00N 33°42' W 076°42'9215.4 070 / 11020.110.8 6.2 3.225.0
2019-Jan-15 00:00N 34°48' W 075°24'9115.1 350 / 241021.1 6.5 4.021.0
2019-Jan-14 18:00N 36°18' W 075°12'9115.2 190 / 191020.110.8 4.6 1.412.0
2019-Jan-14 12:00N 37°48' W 074°54'623.2 010 / 401019.6 5.4 2.0 0.810.0
2019-Jan-14 11:44N 37°54' W 074°55'5512.1
2019-Jan-14 07:10N 38°49' W 075°04'2 7.5
2019-Jan-14 06:57N 38°50' W 075°05'610.2
2019-Jan-14 06:24N 38°56' W 075°06'611.5
2019-Jan-14 05:54N 39°01' W 075°09'511.4
2019-Jan-14 05:29N 39°05' W 075°11'611.4
2019-Jan-14 05:00N 39°10' W 075°15'611.8
2019-Jan-14 04:30N 39°15' W 075°19'612.6
2019-Jan-14 04:01N 39°19' W 075°25'713.5
2019-Jan-14 03:30N 39°25' W 075°30'612.9
2019-Jan-14 03:01N 39°31' W 075°33'713.4
2019-Jan-14 02:31N 39°37' W 075°35'713.8
2019-Jan-14 02:00N 39°43' W 075°30'612.3
2019-Jan-14 01:30N 39°48' W 075°25'612.0
2019-Jan-14 01:00N 39°51' W 075°18'611.9
2019-Jan-14 00:30N 39°53' W 075°11'3 6.5
2019-Jan-14 00:00N 39°55' W 075°08'0 0.2
2019-Jan-13 23:29N 39°55' W 075°08'0 0.0
2019-Jan-13 23:00N 39°55' W 075°08'0 0.0
2019-Jan-13 22:29N 39°55' W 075°08'0 0.0
2019-Jan-13 21:59N 39°55' W 075°08'0 0.0
2019-Jan-13 21:29N 39°55' W 075°08'0 0.0
2019-Jan-13 20:59N 39°55' W 075°08'0 0.0
2019-Jan-13 20:29N 39°55' W 075°08'0 0.0
2019-Jan-13 19:59N 39°55' W 075°08'0 0.0
2019-Jan-13 19:29N 39°55' W 075°08'0 0.0
2019-Jan-13 18:59N 39°55' W 075°08'0 0.0
2019-Jan-13 18:29N 39°55' W 075°08'0 0.0
2019-Jan-13 17:59N 39°55' W 075°08'0 0.0
2019-Jan-13 17:29N 39°55' W 075°08'0 0.0
2019-Jan-13 16:59N 39°55' W 075°08'0 0.0
2019-Jan-13 16:29N 39°55' W 075°08'0 0.0
2019-Jan-13 15:59N 39°55' W 075°08'0 0.0
2019-Jan-13 15:29N 39°55' W 075°08'0 0.0
2019-Jan-13 14:59N 39°55' W 075°08'0 0.0
2019-Jan-13 14:29N 39°55' W 075°08'0 0.0
2019-Jan-13 13:59N 39°55' W 075°08'0 0.0
2019-Jan-13 13:29N 39°55' W 075°08'0 0.0
2019-Jan-13 12:59N 39°55' W 075°08'0 0.0
2019-Jan-13 12:29N 39°55' W 075°08'0 0.0
2019-Jan-13 11:59N 39°55' W 075°08'0 0.0
2019-Jan-13 11:29N 39°55' W 075°08'0 0.0
2019-Jan-13 10:59N 39°55' W 075°08'0 0.0
2019-Jan-13 10:29N 39°55' W 075°08'0 0.0
2019-Jan-13 09:59N 39°55' W 075°08'0 0.0
2019-Jan-13 09:29N 39°55' W 075°08'0 0.0
2019-Jan-13 08:59N 39°55' W 075°08'0 0.0
2019-Jan-13 08:29N 39°55' W 075°08'0 0.0
2019-Jan-13 07:56N 39°55' W 075°08'0 0.0
2019-Jan-13 07:29N 39°55' W 075°08'0 0.0
2019-Jan-13 06:59N 39°55' W 075°08'0 0.0
2019-Jan-13 06:29N 39°55' W 075°08'0 0.0
2019-Jan-13 05:59N 39°55' W 075°08'0 0.0
2019-Jan-13 05:29N 39°55' W 075°08'0 0.0
2019-Jan-13 04:59N 39°55' W 075°08'0 0.0
2019-Jan-13 04:29N 39°55' W 075°08'0 0.0
2019-Jan-13 03:59N 39°55' W 075°08'0 0.0
2019-Jan-13 03:29N 39°55' W 075°08'0 0.0
2019-Jan-13 02:59N 39°55' W 075°08'0 0.0
2019-Jan-13 02:29N 39°55' W 075°08'0 0.0
2019-Jan-13 01:59N 39°55' W 075°08'0 0.0
2019-Jan-13 01:29N 39°55' W 075°08'0 0.0
2019-Jan-13 00:59N 39°55' W 075°08'0 0.0
2019-Jan-13 00:29N 39°55' W 075°08'0 0.0
2019-Jan-12 23:59N 39°55' W 075°08'0 0.0
2019-Jan-12 23:29N 39°55' W 075°08'0 0.0
2019-Jan-12 22:59N 39°55' W 075°08'0 0.0
2019-Jan-12 22:29N 39°55' W 075°08'0 0.0
2019-Jan-12 21:59N 39°55' W 075°08'0 0.0
2019-Jan-12 21:29N 39°55' W 075°08'0 0.0
2019-Jan-12 20:59N 39°55' W 075°08'0 0.0
2019-Jan-12 20:29N 39°55' W 075°08'0 0.0
2019-Jan-12 19:59N 39°55' W 075°08'0 0.0
2019-Jan-12 19:29N 39°55' W 075°08'0 0.0
2019-Jan-12 18:59N 39°55' W 075°08'0 0.0
2019-Jan-12 18:29N 39°55' W 075°08'0 0.0
2019-Jan-12 17:58N 39°55' W 075°08'0 0.0
2019-Jan-12 17:28N 39°55' W 075°08'0 0.0
2019-Jan-12 16:58N 39°55' W 075°08'0 0.0
2019-Jan-12 16:28N 39°55' W 075°08'0 0.0
2019-Jan-12 15:58N 39°55' W 075°08'0 0.0
2019-Jan-12 15:28N 39°55' W 075°08'0 0.0
2019-Jan-12 14:58N 39°55' W 075°08'0 0.0
2019-Jan-12 14:28N 39°55' W 075°08'0 0.0
2019-Jan-12 13:58N 39°55' W 075°08'0 0.0
2019-Jan-12 13:28N 39°55' W 075°08'0 0.0
2019-Jan-12 12:58N 39°55' W 075°08'0 0.0
2019-Jan-12 12:28N 39°55' W 075°08'0 0.0
2019-Jan-12 11:58N 39°55' W 075°08'0 0.3
2019-Jan-12 11:30N 39°55' W 075°08'1 2.1
2019-Jan-12 11:00N 39°54' W 075°08'4 7.2
2019-Jan-12 10:30N 39°53' W 075°12'4 7.7
2019-Jan-12 10:00N 39°51' W 075°17'4 8.6
2019-Jan-12 09:30N 39°50' W 075°22'4 8.1
2019-Jan-12 09:01N 39°48' W 075°26'4 8.9
2019-Jan-12 08:30N 39°44' W 075°30'5 9.1
2019-Jan-12 08:00N 39°40' W 075°32'5 9.2
2019-Jan-12 07:30N 39°35' W 075°34'510.9
2019-Jan-12 07:00N 39°30' W 075°33'611.3
2019-Jan-12 06:30N 39°25' W 075°31'612.1
2019-Jan-12 06:00N 39°20' W 075°25'611.8
2019-Jan-12 05:30N 39°16' W 075°20'510.9
2019-Jan-12 05:00N 39°11' W 075°17'510.6
2019-Jan-12 04:30N 39°07' W 075°13'510.6
2019-Jan-12 04:01N 39°02' W 075°09'88 8.8
2019-Jan-11 18:00N 37°42' W 074°24'   330 / 171024.310.8 3.0-5.313.0
Track history (hours):
 
Tides and Currents Weather Stations Pressure Air Temp Water Temp Dewpoint Dewpoint Depression Visibility Wind Speed Wind Dir Waves Ship Positions

Statengracht

Last reported at 2019-Jan-21 18:00 UTC. Time now 2019-Jan-22 05:57 UTC.
Position N 45°18' W 060°24'.

Length 173 m; beam 25 m.

Type: Cargo ship. MMSI: 244584000.

Wind from 230 at 42 knots

Barometer 994.1 mb
Air temperature 2.5 ° C
Visibility: greater than 5.4 NM
Dewpoint -0.7 ° C
Water temperature 10.0 ° C

Date/timePositionNaut miles runAvg speedWind from/ knotsBaromVisibWave heightAir tempDewpointWater temp
2019-Jan-21 18:00N 45°18' W 060°24'8914.8 230 / 42994.1 5.4 2.5-0.710.0
2019-Jan-21 12:00N 44°12' W 061°48'8414.0 220 / 35990.0 5.4 8.0 7.011.0
2019-Jan-21 06:00N 43°06' W 063°00'8814.6 230 / 55991.0 5.4 10.1 6.611.0
2019-Jan-21 00:00N 42°00' W 064°18'9015.0 180 / 47997.5 5.4 16.512.713.0
2019-Jan-20 18:00N 41°06' W 065°54'8413.9 220 / 441003.0 5.4 13.210.712.0
2019-Jan-20 12:00N 40°12' W 067°18'8814.7 140 / 191008.2 2.2 10.0 9.115.0
2019-Jan-20 06:00N 39°24' W 068°54'8914.8 230 / 401013.010.8 13.810.315.0
2019-Jan-20 00:00N 38°24' W 070°18'8514.2 100 / 121018.610.8 11.0 5.415.0
2019-Jan-19 18:00N 37°30' W 071°42'10918.1 150 / 91021.110.8 11.5 6.521.0
2019-Jan-19 12:00N 36°18' W 073°24'10417.3 350 / 121019.910.8 13.5 6.726.0
2019-Jan-19 06:00N 35°00' W 074°48'11218.7 170 / 71020.010.8 14.2 9.924.0
2019-Jan-19 00:00N 33°36' W 076°18'11819.6 280 / 141019.010.8 16.011.226.0
2019-Jan-18 18:00N 32°06' W 077°48'8614.3 260 / 231020.010.8 18.611.127.5
2019-Jan-18 12:00N 31°06' W 079°00'10116.8 270 / 141019.810.8 19.011.426.0
2019-Jan-18 06:00N 29°30' W 079°36'9616.0 210 / 191021.010.8 21.814.127.0
2019-Jan-18 00:00N 27°54' W 079°36'6116.7 190 / 71021.010.8 23.014.327.0
2019-Jan-17 20:21N 26°55' W 079°51'616.1
2019-Jan-17 19:57N 26°50' W 079°56'7 8.2
2019-Jan-17 19:05N 26°46' W 080°03'0 0.0
2019-Jan-17 06:03N 26°46' W 080°03'0 0.0
2019-Jan-16 21:09N 26°46' W 080°03'0 0.0
2019-Jan-16 19:11N 26°46' W 080°03'0 0.8
2019-Jan-16 18:59N 26°46' W 080°03'2 4.5
2019-Jan-16 18:29N 26°46' W 080°00'3 6.9
2019-Jan-16 18:00N 26°49' W 079°58'714.0
2019-Jan-16 17:30N 26°56' W 079°56'713.3
2019-Jan-16 16:59N 27°03' W 079°55'6412.7
2019-Jan-16 12:00N 28°06' W 079°48'7813.0 330 / 171020.9 5.4 18.013.927.0
2019-Jan-16 06:00N 29°24' W 079°54'7212.0 130 / 11021.010.8 17.613.523.0
2019-Jan-16 00:00N 30°36' W 079°48'7011.7 350 / 161021.010.8 15.0 9.327.0
2019-Jan-15 18:00N 31°36' W 079°06'7813.0 220 / 31021.010.8 12.5 5.423.0
2019-Jan-15 12:00N 32°30' W 078°00'9716.2 350 / 151021.210.8 10.0 5.821.0
2019-Jan-15 06:00N 33°42' W 076°42'9215.4 070 / 11020.110.8 6.2 3.225.0
2019-Jan-15 00:00N 34°48' W 075°24'9115.1 350 / 241021.1 6.5 4.021.0
2019-Jan-14 18:00N 36°18' W 075°12'9115.2 190 / 191020.110.8 4.6 1.412.0
2019-Jan-14 12:00N 37°48' W 074°54'623.2 010 / 401019.6 5.4 2.0 0.810.0
2019-Jan-14 11:44N 37°54' W 074°55'5512.1
2019-Jan-14 07:10N 38°49' W 075°04'2 7.5
2019-Jan-14 06:57N 38°50' W 075°05'610.2
2019-Jan-14 06:24N 38°56' W 075°06'611.5
2019-Jan-14 05:54N 39°01' W 075°09'511.4
2019-Jan-14 05:29N 39°05' W 075°11'611.4
2019-Jan-14 05:00N 39°10' W 075°15'611.8
2019-Jan-14 04:30N 39°15' W 075°19'612.6
2019-Jan-14 04:01N 39°19' W 075°25'713.5
2019-Jan-14 03:30N 39°25' W 075°30'612.9
2019-Jan-14 03:01N 39°31' W 075°33'713.4
2019-Jan-14 02:31N 39°37' W 075°35'713.8
2019-Jan-14 02:00N 39°43' W 075°30'612.3
2019-Jan-14 01:30N 39°48' W 075°25'612.0
2019-Jan-14 01:00N 39°51' W 075°18'611.9
2019-Jan-14 00:30N 39°53' W 075°11'3 6.5
2019-Jan-14 00:00N 39°55' W 075°08'0 0.2
2019-Jan-13 23:29N 39°55' W 075°08'0 0.0
2019-Jan-13 23:00N 39°55' W 075°08'0 0.0
2019-Jan-13 22:29N 39°55' W 075°08'0 0.0
2019-Jan-13 21:59N 39°55' W 075°08'0 0.0
2019-Jan-13 21:29N 39°55' W 075°08'0 0.0
2019-Jan-13 20:59N 39°55' W 075°08'0 0.0
2019-Jan-13 20:29N 39°55' W 075°08'0 0.0
2019-Jan-13 19:59N 39°55' W 075°08'0 0.0
2019-Jan-13 19:29N 39°55' W 075°08'0 0.0
2019-Jan-13 18:59N 39°55' W 075°08'0 0.0
2019-Jan-13 18:29N 39°55' W 075°08'0 0.0
2019-Jan-13 17:59N 39°55' W 075°08'0 0.0
2019-Jan-13 17:29N 39°55' W 075°08'0 0.0
2019-Jan-13 16:59N 39°55' W 075°08'0 0.0
2019-Jan-13 16:29N 39°55' W 075°08'0 0.0
2019-Jan-13 15:59N 39°55' W 075°08'0 0.0
2019-Jan-13 15:29N 39°55' W 075°08'0 0.0
2019-Jan-13 14:59N 39°55' W 075°08'0 0.0
2019-Jan-13 14:29N 39°55' W 075°08'0 0.0
2019-Jan-13 13:59N 39°55' W 075°08'0 0.0
2019-Jan-13 13:29N 39°55' W 075°08'0 0.0
2019-Jan-13 12:59N 39°55' W 075°08'0 0.0
2019-Jan-13 12:29N 39°55' W 075°08'0 0.0
2019-Jan-13 11:59N 39°55' W 075°08'0 0.0
2019-Jan-13 11:29N 39°55' W 075°08'0 0.0
2019-Jan-13 10:59N 39°55' W 075°08'0 0.0
2019-Jan-13 10:29N 39°55' W 075°08'0 0.0
2019-Jan-13 09:59N 39°55' W 075°08'0 0.0
2019-Jan-13 09:29N 39°55' W 075°08'0 0.0
2019-Jan-13 08:59N 39°55' W 075°08'0 0.0
2019-Jan-13 08:29N 39°55' W 075°08'0 0.0
2019-Jan-13 07:56N 39°55' W 075°08'0 0.0
2019-Jan-13 07:29N 39°55' W 075°08'0 0.0
2019-Jan-13 06:59N 39°55' W 075°08'0 0.0
2019-Jan-13 06:29N 39°55' W 075°08'0 0.0
2019-Jan-13 05:59N 39°55' W 075°08'0 0.0
2019-Jan-13 05:29N 39°55' W 075°08'0 0.0
2019-Jan-13 04:59N 39°55' W 075°08'0 0.0
2019-Jan-13 04:29N 39°55' W 075°08'0 0.0
2019-Jan-13 03:59N 39°55' W 075°08'0 0.0
2019-Jan-13 03:29N 39°55' W 075°08'0 0.0
2019-Jan-13 02:59N 39°55' W 075°08'0 0.0
2019-Jan-13 02:29N 39°55' W 075°08'0 0.0
2019-Jan-13 01:59N 39°55' W 075°08'0 0.0
2019-Jan-13 01:29N 39°55' W 075°08'0 0.0
2019-Jan-13 00:59N 39°55' W 075°08'0 0.0
2019-Jan-13 00:29N 39°55' W 075°08'0 0.0
2019-Jan-12 23:59N 39°55' W 075°08'0 0.0
2019-Jan-12 23:29N 39°55' W 075°08'0 0.0
2019-Jan-12 22:59N 39°55' W 075°08'0 0.0
2019-Jan-12 22:29N 39°55' W 075°08'0 0.0
2019-Jan-12 21:59N 39°55' W 075°08'0 0.0
2019-Jan-12 21:29N 39°55' W 075°08'0 0.0
2019-Jan-12 20:59N 39°55' W 075°08'0 0.0
2019-Jan-12 20:29N 39°55' W 075°08'0 0.0
2019-Jan-12 19:59N 39°55' W 075°08'0 0.0
2019-Jan-12 19:29N 39°55' W 075°08'0 0.0
2019-Jan-12 18:59N 39°55' W 075°08'0 0.0
2019-Jan-12 18:29N 39°55' W 075°08'0 0.0
2019-Jan-12 17:58N 39°55' W 075°08'0 0.0
2019-Jan-12 17:28N 39°55' W 075°08'0 0.0
2019-Jan-12 16:58N 39°55' W 075°08'0 0.0
2019-Jan-12 16:28N 39°55' W 075°08'0 0.0
2019-Jan-12 15:58N 39°55' W 075°08'0 0.0
2019-Jan-12 15:28N 39°55' W 075°08'0 0.0
2019-Jan-12 14:58N 39°55' W 075°08'0 0.0
2019-Jan-12 14:28N 39°55' W 075°08'0 0.0
2019-Jan-12 13:58N 39°55' W 075°08'0 0.0
2019-Jan-12 13:28N 39°55' W 075°08'0 0.0
2019-Jan-12 12:58N 39°55' W 075°08'0 0.0
2019-Jan-12 12:28N 39°55' W 075°08'0 0.0
2019-Jan-12 11:58N 39°55' W 075°08'0 0.3
2019-Jan-12 11:30N 39°55' W 075°08'1 2.1
2019-Jan-12 11:00N 39°54' W 075°08'4 7.2
2019-Jan-12 10:30N 39°53' W 075°12'4 7.7
2019-Jan-12 10:00N 39°51' W 075°17'4 8.6
2019-Jan-12 09:30N 39°50' W 075°22'4 8.1
2019-Jan-12 09:01N 39°48' W 075°26'4 8.9
2019-Jan-12 08:30N 39°44' W 075°30'5 9.1
2019-Jan-12 08:00N 39°40' W 075°32'5 9.2
2019-Jan-12 07:30N 39°35' W 075°34'510.9
2019-Jan-12 07:00N 39°30' W 075°33'611.3
2019-Jan-12 06:30N 39°25' W 075°31'612.1
2019-Jan-12 06:00N 39°20' W 075°25'611.8
2019-Jan-12 05:30N 39°16' W 075°20'510.9
2019-Jan-12 05:00N 39°11' W 075°17'510.6
2019-Jan-12 04:30N 39°07' W 075°13'510.6
2019-Jan-12 04:01N 39°02' W 075°09'88 8.8
2019-Jan-11 18:00N 37°42' W 074°24'   330 / 171024.310.8 3.0-5.313.0

Dump ship's entire track history